Time;durP1;ratioP1;P1;durP2;ratioP2;P2;SDS_P1;SDS_P2;PMS_P1;PMS_P2;Temp;Humidity;BMP_temperature;BMP_pressure;BME280_temperature;BME280_humidity;BME280_pressure;Samples;Min_cycle;Max_cycle;Signal;HPM_P1;HPM_P2
2023/06/27 00:03:58;;;;;;;12.50;6.60;;;;;;;19.61;94.47;100069.92;219919;1264;140015;-86
2023/06/27 00:08:58;;;;;;;11.40;6.60;;;;;;;19.51;94.06;100067.84;219303;1268;141041;-86
2023/06/27 00:13:58;;;;;;;12.10;7.30;;;;;;;19.44;94.13;100080.10;219930;1267;98089;-86
2023/06/27 00:19:02;;;;;;;13.10;7.80;;;;;;;19.37;94.14;100082.78;219235;1266;140986;-85
2023/06/27 00:24:03;;;;;;;15.80;7.60;;;;;;;19.29;94.43;100075.79;219503;1265;139062;-86
2023/06/27 00:29:05;;;;;;;12.80;6.60;;;;;;;19.20;94.68;100081.14;219171;1267;140981;-85
2023/06/27 00:34:05;;;;;;;13.20;6.90;;;;;;;19.13;94.37;100077.59;219747;1266;139872;-85
2023/06/27 00:39:05;;;;;;;14.80;6.90;;;;;;;19.06;94.34;100081.99;219411;1267;142769;-86
2023/06/27 00:44:08;;;;;;;12.50;6.40;;;;;;;18.98;94.29;100100.58;220029;1264;97943;-85
2023/06/27 00:49:11;;;;;;;12.30;6.20;;;;;;;18.90;94.41;100102.79;219260;1266;140902;-85
2023/06/27 00:54:12;;;;;;;11.20;5.50;;;;;;;18.82;94.55;100113.46;219981;1268;139032;-84
2023/06/27 00:59:13;;;;;;;14.00;5.80;;;;;;;18.72;94.34;100098.42;219358;1265;141266;-85
2023/06/27 01:04:15;;;;;;;11.30;5.30;;;;;;;18.63;94.00;100085.31;219822;1267;139295;-85
2023/06/27 01:09:25;;;;;;;9.50;4.80;;;;;;;18.56;93.81;100090.02;219156;1264;143236;-85
2023/06/27 01:14:30;;;;;;;9.30;4.30;;;;;;;18.48;93.78;100097.16;219872;1266;104425;-85
2023/06/27 01:19:32;;;;;;;12.40;4.20;;;;;;;18.41;93.54;100103.00;219563;1264;141950;-85
2023/06/27 01:24:33;;;;;;;19.40;4.00;;;;;;;18.32;93.64;100095.34;219594;1268;140510;-83
2023/06/27 01:29:33;;;;;;;10.90;4.30;;;;;;;18.25;93.53;100083.50;219268;1263;142378;-85
2023/06/27 01:34:49;;;;;;;10.30;4.10;;;;;;;18.20;93.40;100080.36;219748;1267;139244;-85
2023/06/27 01:39:58;;;;;;;9.90;4.20;;;;;;;18.14;93.68;100090.77;219270;1268;142549;-85
2023/06/27 01:45:01;;;;;;;13.50;4.50;;;;;;;18.08;93.66;100087.34;219748;1266;138844;-86
2023/06/27 01:50:03;;;;;;;11.50;4.10;;;;;;;18.02;93.82;100089.17;219314;1267;141011;-85
2023/06/27 01:55:04;;;;;;;9.80;3.60;;;;;;;17.96;93.50;100085.10;219875;1266;138906;-86
2023/06/27 02:00:06;;;;;;;12.00;3.90;;;;;;;17.90;93.57;100089.60;219288;1266;141133;-86
2023/06/27 02:05:08;;;;;;;9.60;3.80;;;;;;;17.85;93.80;100086.96;219784;1263;138998;-85
2023/06/27 02:10:08;;;;;;;19.50;4.80;;;;;;;17.77;94.23;100090.09;219204;1266;140640;-86
2023/06/27 02:15:09;;;;;;;9.40;3.70;;;;;;;17.70;94.36;100087.55;219830;1266;138979;-86
2023/06/27 02:20:09;;;;;;;8.00;3.50;;;;;;;17.64;94.42;100074.59;219467;1265;141073;-86
2023/06/27 02:25:10;;;;;;;9.80;3.30;;;;;;;17.60;95.02;100089.23;219878;1266;138931;-86
2023/06/27 02:30:11;;;;;;;8.50;3.70;;;;;;;17.52;95.51;100091.06;219569;1267;142116;-85
2023/06/27 02:35:15;;;;;;;7.60;3.00;;;;;;;17.47;95.27;100098.10;220143;1267;139418;-84
2023/06/27 02:40:15;;;;;;;10.80;3.50;;;;;;;17.41;95.07;100100.84;219494;1268;140707;-85
2023/06/27 02:45:16;;;;;;;14.30;2.80;;;;;;;17.34;95.35;100108.05;219961;1268;139507;-84
2023/06/27 02:50:16;;;;;;;13.30;3.20;;;;;;;17.28;94.81;100118.35;219384;1264;141592;-85
2023/06/27 02:55:17;;;;;;;9.90;2.70;;;;;;;17.24;94.96;100113.10;219983;1268;138992;-86
2023/06/27 03:00:18;;;;;;;9.80;3.00;;;;;;;17.21;94.84;100118.18;219257;1268;140212;-85
2023/06/27 03:05:18;;;;;;;9.10;3.00;;;;;;;17.15;95.14;100123.15;219690;1268;139718;-84
2023/06/27 03:10:18;;;;;;;8.90;3.30;;;;;;;17.07;95.23;100123.15;219281;1267;140340;-84
2023/06/27 03:15:19;;;;;;;14.00;4.30;;;;;;;17.01;95.50;100128.76;219889;1265;138873;-84
2023/06/27 03:20:20;;;;;;;8.90;3.00;;;;;;;16.95;95.45;100127.27;219256;1265;141728;-84
2023/06/27 03:25:21;;;;;;;9.80;3.30;;;;;;;16.91;95.29;100139.99;219733;1264;138490;-85
2023/06/27 03:30:21;;;;;;;10.00;3.00;;;;;;;16.86;95.35;100140.80;219405;1264;140680;-84
2023/06/27 03:35:22;;;;;;;9.60;2.70;;;;;;;16.81;95.23;100147.96;219926;1268;139152;-84
2023/06/27 03:40:22;;;;;;;11.30;3.80;;;;;;;16.76;95.32;100149.81;219102;1266;141138;-85
2023/06/27 03:45:23;;;;;;;7.80;2.30;;;;;;;16.72;95.29;100154.71;219942;1266;140192;-85
2023/06/27 03:50:23;;;;;;;6.50;2.50;;;;;;;16.68;95.40;100154.33;219471;1267;140934;-85
2023/06/27 03:55:23;;;;;;;10.20;3.30;;;;;;;16.68;95.22;100157.59;219914;1264;138550;-83
2023/06/27 04:00:24;;;;;;;11.50;3.10;;;;;;;16.66;95.71;100161.83;219117;1268;142025;-85
2023/06/27 04:05:24;;;;;;;12.80;4.00;;;;;;;16.62;95.89;100162.78;219635;1268;139167;-85
2023/06/27 04:10:25;;;;;;;12.10;2.90;;;;;;;16.58;96.09;100171.97;219350;1268;140889;-84
2023/06/27 04:15:25;;;;;;;8.40;3.30;;;;;;;16.55;95.76;100169.16;219834;1267;139412;-84
2023/06/27 04:20:26;;;;;;;8.50;2.70;;;;;;;16.54;95.47;100179.11;219298;1266;141231;-84
2023/06/27 04:25:33;;;;;;;11.20;3.30;;;;;;;16.53;95.90;100182.45;219685;1264;139766;-84
2023/06/27 04:30:36;;;;;;;8.20;3.10;;;;;;;16.50;96.36;100184.57;219255;1267;141613;-85
2023/06/27 04:35:38;;;;;;;12.30;3.40;;;;;;;16.50;97.08;100190.91;219941;1268;139087;-85
2023/06/27 04:40:38;;;;;;;12.30;3.80;;;;;;;16.47;96.97;100190.57;219328;1268;140835;-83
2023/06/27 04:45:39;;;;;;;12.40;3.80;;;;;;;16.48;97.04;100191.91;219833;1267;139221;-85
2023/06/27 04:50:39;;;;;;;12.90;3.10;;;;;;;16.50;96.79;100191.79;219317;1264;142239;-84
2023/06/27 04:55:39;;;;;;;9.50;3.50;;;;;;;16.55;96.34;100194.09;219967;1267;99715;-86
2023/06/27 05:00:40;;;;;;;12.00;3.70;;;;;;;16.61;96.13;100189.21;219423;1268;141493;-85
2023/06/27 05:05:41;;;;;;;8.80;3.70;;;;;;;16.64;95.58;100191.48;219852;1264;139938;-86
2023/06/27 05:10:41;;;;;;;10.70;3.60;;;;;;;16.71;95.31;100196.36;219503;1268;141002;-85
2023/06/27 05:15:41;;;;;;;11.10;3.60;;;;;;;16.77;94.83;100195.52;219917;1269;139332;-85
2023/06/27 05:20:43;;;;;;;10.60;3.40;;;;;;;16.85;94.66;100199.44;219441;1264;142707;-85
2023/06/27 05:25:43;;;;;;;11.70;3.00;;;;;;;17.01;94.49;100200.66;220062;1269;97972;-86
2023/06/27 05:30:44;;;;;;;8.00;2.90;;;;;;;17.21;93.64;100201.85;219471;1267;140721;-85
2023/06/27 05:35:44;;;;;;;8.40;3.30;;;;;;;17.42;92.67;100198.99;219848;1264;139811;-85
2023/06/27 05:40:45;;;;;;;11.00;3.00;;;;;;;17.63;91.03;100202.44;219413;1267;140749;-83
2023/06/27 05:45:45;;;;;;;10.90;2.80;;;;;;;17.79;89.41;100198.06;219762;1267;140848;-83
2023/06/27 05:50:45;;;;;;;9.40;2.30;;;;;;;17.96;88.31;100204.59;219338;1268;141760;-86
2023/06/27 05:55:46;;;;;;;10.90;2.70;;;;;;;18.13;87.62;100205.96;220049;1264;97969;-84
2023/06/27 06:00:46;;;;;;;10.70;2.90;;;;;;;18.26;86.42;100209.39;219301;1264;140530;-85
2023/06/27 06:05:47;;;;;;;8.20;2.30;;;;;;;18.37;85.34;100212.81;219719;1270;139084;-85
2023/06/27 06:10:50;;;;;;;12.30;3.00;;;;;;;18.46;84.54;100217.70;219349;1267;140761;-85
2023/06/27 06:15:50;;;;;;;10.50;3.20;;;;;;;18.59;83.81;100217.54;220144;1267;139277;-84
2023/06/27 06:20:50;;;;;;;11.10;3.50;;;;;;;18.81;83.96;100222.61;219490;1264;141367;-86
2023/06/27 06:31:47;;;;;;;9.30;2.70;;;;;;;19.30;80.62;100229.13;220273;1267;140778;-85
2023/06/27 06:36:48;;;;;;;10.20;2.70;;;;;;;19.53;79.74;100222.02;219780;1267;273475;-86
2023/06/27 06:41:48;;;;;;;14.80;3.50;;;;;;;19.97;78.15;100226.42;219533;1267;141424;-88
2023/06/27 06:46:49;;;;;;;11.10;3.00;;;;;;;20.20;77.23;100231.85;219913;1264;138940;-88
2023/06/27 06:51:49;;;;;;;11.40;2.80;;;;;;;20.43;75.58;100240.33;219783;1264;142478;-86
2023/06/27 06:56:49;;;;;;;11.30;3.00;;;;;;;20.77;74.86;100241.58;220345;1264;139863;-85
2023/06/27 07:01:51;;;;;;;11.00;2.70;;;;;;;20.98;72.83;100243.69;219819;1267;141544;-86
2023/06/27 07:06:51;;;;;;;16.10;3.20;;;;;;;21.24;71.35;100239.89;220253;1267;139336;-85
2023/06/27 07:11:53;;;;;;;7.00;2.40;;;;;;;21.51;70.57;100242.36;219666;1263;141933;-85
2023/06/27 07:16:53;;;;;;;9.40;2.70;;;;;;;21.88;69.60;100240.98;220384;1263;138905;-86
2023/06/27 07:21:54;;;;;;;10.40;3.40;;;;;;;22.45;68.42;100246.29;219575;1264;140554;-88
2023/06/27 07:26:54;;;;;;;6.80;2.30;;;;;;;22.76;65.40;100245.34;220268;1264;138724;-86
2023/06/27 07:31:55;;;;;;;12.50;2.70;;;;;;;22.97;64.40;100241.56;219839;1264;140740;-85
2023/06/27 07:36:55;;;;;;;10.90;2.70;;;;;;;23.45;63.83;100237.88;220446;1264;138413;-85
2023/06/27 07:41:56;;;;;;;7.10;2.20;;;;;;;23.86;61.45;100231.91;219779;1267;141188;-85
2023/06/27 07:46:57;;;;;;;9.10;2.50;;;;;;;24.02;60.80;100220.80;220439;1264;138796;-85
2023/06/27 07:51:57;;;;;;;10.60;2.20;;;;;;;24.42;59.86;100217.33;219564;1264;141668;-87
2023/06/27 07:56:58;;;;;;;6.10;2.50;;;;;;;24.75;58.26;100221.03;220041;1264;138242;-88
2023/06/27 08:01:58;;;;;;;7.20;2.70;;;;;;;25.06;56.24;100229.33;219628;1267;139858;-86
2023/06/27 08:06:59;;;;;;;6.50;2.40;;;;;;;25.43;54.99;100216.70;220369;1264;138015;-86
2023/06/27 08:11:59;;;;;;;6.40;2.30;;;;;;;25.65;53.85;100217.31;219716;1267;142184;-89
2023/06/27 08:17:00;;;;;;;9.70;2.30;;;;;;;25.37;52.30;100220.50;220474;1267;138585;-86
2023/06/27 08:22:01;;;;;;;6.90;2.40;;;;;;;25.41;54.44;100212.45;220048;1267;142095;-87
2023/06/27 08:27:01;;;;;;;10.10;2.70;;;;;;;25.61;54.44;100211.20;220710;1264;138447;-86
2023/06/27 08:32:05;;;;;;;8.50;3.10;;;;;;;25.55;53.08;100215.98;220347;1264;141472;-83
2023/06/27 08:37:06;;;;;;;7.80;2.60;;;;;;;25.30;51.86;100214.52;220472;1265;137972;-83
2023/06/27 08:42:06;;;;;;;8.60;2.50;;;;;;;25.22;52.73;100216.86;220085;1264;140207;-83
2023/06/27 08:47:08;;;;;;;5.10;2.40;;;;;;;25.24;52.12;100226.18;221038;1263;138047;-84
2023/06/27 08:52:13;;;;;;;10.70;2.70;;;;;;;24.88;53.27;100254.64;220244;1264;140070;-88
2023/06/27 08:57:15;;;;;;;9.00;2.40;;;;;;;24.21;56.76;100272.43;220496;1267;139070;-87
2023/06/27 09:02:17;;;;;;;7.60;2.10;;;;;;;23.33;57.81;100269.92;219890;1264;140752;-89
2023/06/27 09:07:18;;;;;;;7.60;2.10;;;;;;;22.44;59.95;100268.44;220385;1267;137939;-90
2023/06/27 09:12:19;;;;;;;6.70;2.00;;;;;;;21.67;62.72;100254.16;219536;1264;139706;-90
2023/06/27 09:17:19;;;;;;;9.40;2.40;;;;;;;21.13;65.58;100273.22;219944;1267;138893;-90
2023/06/27 09:22:23;;;;;;;8.40;2.40;;;;;;;20.80;67.21;100280.96;219460;1267;140557;-91
2023/06/27 09:27:30;;;;;;;4.70;2.00;;;;;;;20.22;69.11;100283.11;220191;1264;138251;-92
2023/06/27 09:32:31;;;;;;;4.60;1.30;;;;;;;19.64;68.94;100275.30;220280;1267;140610;-93
2023/06/27 09:37:32;;;;;;;5.20;1.70;;;;;;;19.12;70.16;100268.51;220190;1267;98001;-92
2023/06/27 09:42:33;;;;;;;6.60;2.40;;;;;;;18.87;70.69;100257.29;219494;1265;139952;-91
2023/06/27 09:47:35;;;;;;;6.70;2.00;;;;;;;18.72;73.44;100256.94;220186;1267;138869;-89
2023/06/27 09:52:36;;;;;;;7.00;2.10;;;;;;;19.01;78.99;100257.08;219700;1264;140613;-89
2023/06/27 09:57:37;;;;;;;9.10;3.10;;;;;;;19.64;81.43;100245.57;220182;1264;139280;-86
2023/06/27 10:02:37;;;;;;;9.80;3.20;;;;;;;20.26;80.60;100236.13;219873;1267;142257;-85
2023/06/27 10:07:39;;;;;;;8.90;3.00;;;;;;;20.99;81.65;100226.36;220208;1264;98000;-85
2023/06/27 10:12:41;;;;;;;8.90;3.70;;;;;;;21.60;79.13;100220.33;219615;1264;141690;-86
2023/06/27 10:17:42;;;;;;;8.80;3.20;;;;;;;22.22;78.22;100225.88;220096;1264;138813;-85
2023/06/27 10:22:45;;;;;;;7.90;3.00;;;;;;;22.94;76.87;100224.77;219348;1267;140938;-86
2023/06/27 10:27:46;;;;;;;11.00;3.40;;;;;;;23.41;73.71;100222.60;219969;1264;138804;-87
2023/06/27 10:32:48;;;;;;;6.90;2.70;;;;;;;23.42;69.09;100246.61;219945;1264;141378;-88
2023/06/27 10:38:17;;;;;;;8.20;2.40;;;;;;;22.98;66.69;100261.48;219916;1265;98041;-87
2023/06/27 10:48:27;;;;;;;8.90;2.40;;;;;;;22.51;65.14;100249.27;220331;1267;138100;-90
2023/06/27 10:53:27;;;;;;;9.70;3.00;;;;;;;22.60;66.29;100241.84;219682;1267;141975;-90
2023/06/27 10:58:44;;;;;;;10.40;2.80;;;;;;;22.80;66.20;100237.23;220315;1265;138929;-89
2023/06/27 11:03:47;;;;;;;7.90;2.90;;;;;;;23.09;66.86;100233.13;219627;1264;140552;-88
2023/06/27 11:08:56;;;;;;;10.50;3.40;;;;;;;23.25;65.46;100231.87;221404;1264;139360;-90
2023/06/27 11:14:08;;;;;;;8.60;2.60;;;;;;;23.34;64.38;100235.13;221218;1264;138485;-90
2023/06/27 11:19:08;;;;;;;8.00;2.70;;;;;;;23.47;63.69;100230.16;219597;1267;140334;-89
2023/06/27 11:24:09;;;;;;;7.00;2.60;;;;;;;23.72;63.69;100231.84;220062;1265;138439;-90
2023/06/27 11:29:13;;;;;;;6.70;2.50;;;;;;;24.19;64.25;100218.17;219557;1264;140701;-90
2023/06/27 11:34:15;;;;;;;6.10;2.10;;;;;;;24.86;62.83;100208.46;220004;1267;138292;-89
2023/06/27 11:39:16;;;;;;;7.90;2.50;;;;;;;25.39;61.01;100201.23;219833;1267;140793;-84
2023/06/27 11:44:16;;;;;;;8.50;2.80;;;;;;;25.26;57.30;100225.98;220119;1267;99236;-83
2023/06/27 11:49:22;;;;;;;7.50;2.00;;;;;;;24.77;55.47;100232.42;219503;1264;139678;-84
2023/06/27 11:54:23;;;;;;;4.50;1.70;;;;;;;24.26;55.62;100230.84;220041;1264;137913;-83
2023/06/27 11:59:33;;;;;;;8.50;2.20;;;;;;;24.11;56.79;100224.40;219292;1267;140889;-83
2023/06/27 12:04:33;;;;;;;5.40;1.90;;;;;;;24.17;57.16;100219.52;219952;1267;139304;-82
2023/06/27 12:09:34;;;;;;;4.50;1.70;;;;;;;24.14;56.28;100213.58;219395;1266;140781;-81
2023/06/27 12:14:34;;;;;;;5.50;1.70;;;;;;;23.87;53.03;100209.80;219911;1263;139338;-82
2023/06/27 12:19:35;;;;;;;6.60;1.70;;;;;;;23.90;53.78;100208.27;219660;1264;140961;-83
2023/06/27 12:24:36;;;;;;;4.80;1.40;;;;;;;23.97;51.91;100208.53;219972;1264;137975;-83
2023/06/27 12:29:37;;;;;;;5.70;1.80;;;;;;;23.91;53.13;100212.77;219388;1264;141218;-81
2023/06/27 12:34:37;;;;;;;6.00;1.30;;;;;;;24.05;53.03;100216.20;220038;1267;138735;-83
2023/06/27 12:39:38;;;;;;;6.90;1.80;;;;;;;23.98;51.89;100202.68;219468;1264;140841;-80
2023/06/27 12:44:38;;;;;;;6.10;1.90;;;;;;;24.07;53.12;100192.38;219942;1265;138266;-82
2023/06/27 12:49:39;;;;;;;7.10;1.80;;;;;;;24.26;51.93;100180.92;219543;1264;140107;-80
2023/06/27 12:54:39;;;;;;;7.70;1.70;;;;;;;24.42;53.24;100178.27;219964;1265;138199;-81
2023/06/27 12:59:40;;;;;;;7.60;1.90;;;;;;;24.78;52.71;100170.69;219575;1263;139940;-80
2023/06/27 13:04:40;;;;;;;4.50;1.30;;;;;;;24.94;50.53;100160.68;219957;1264;138804;-81
2023/06/27 13:09:40;;;;;;;4.60;1.40;;;;;;;25.16;50.51;100154.37;219341;1264;141453;-82
2023/06/27 13:14:41;;;;;;;7.70;1.60;;;;;;;25.47;49.42;100150.56;219935;1265;138057;-82
2023/06/27 13:19:42;;;;;;;5.60;1.80;;;;;;;25.78;48.88;100149.08;219444;1264;141105;-82
2023/06/27 13:24:44;;;;;;;6.70;1.80;;;;;;;25.85;49.00;100148.12;219999;1264;138022;-81
2023/06/27 13:29:45;;;;;;;4.60;1.80;;;;;;;26.18;48.41;100147.29;219258;1264;140500;-82
2023/06/27 13:34:45;;;;;;;5.70;1.50;;;;;;;26.49;48.51;100144.20;219973;1263;138170;-82
2023/06/27 13:39:45;;;;;;;5.90;1.50;;;;;;;26.80;47.46;100135.57;219462;1264;140064;-82
2023/06/27 13:44:47;;;;;;;5.10;1.60;;;;;;;26.69;46.79;100139.21;220070;1265;138117;-83
2023/06/27 13:49:47;;;;;;;5.00;1.20;;;;;;;26.69;45.84;100139.83;219447;1267;140360;-82
2023/06/27 13:54:48;;;;;;;6.10;1.50;;;;;;;26.57;46.75;100136.43;219845;1263;137920;-82
2023/06/27 13:59:48;;;;;;;4.80;1.40;;;;;;;26.48;46.29;100133.15;219396;1267;140241;-83
2023/06/27 14:04:50;;;;;;;5.20;1.60;;;;;;;26.08;45.23;100139.13;219967;1264;138274;-83
2023/06/27 14:09:50;;;;;;;6.80;1.70;;;;;;;25.31;46.21;100151.08;219193;1267;139960;-81
2023/06/27 14:14:51;;;;;;;3.10;1.20;;;;;;;24.49;48.98;100170.22;219917;1264;138848;-81
2023/06/27 14:19:51;;;;;;;6.90;1.50;;;;;;;23.72;51.55;100198.91;219381;1265;142081;-80
2023/06/27 14:24:52;;;;;;;6.80;2.30;;;;;;;22.85;54.19;100227.00;220015;1264;139517;-80
2023/06/27 14:29:53;;;;;;;7.10;1.40;;;;;;;22.00;56.11;100227.23;219250;1264;140200;-80
2023/06/27 14:34:53;;;;;;;7.10;1.60;;;;;;;21.40;58.32;100220.92;219767;1263;138121;-90
2023/06/27 14:39:54;;;;;;;6.90;1.50;;;;;;;20.94;60.00;100216.56;219280;1266;140230;-87
2023/06/27 14:44:55;;;;;;;6.10;1.70;;;;;;;20.54;61.65;100209.11;219839;1265;138279;-90
2023/06/27 14:49:55;;;;;;;5.80;1.30;;;;;;;20.15;63.19;100200.72;219254;1264;139911;-90
2023/06/27 14:54:56;;;;;;;8.00;1.60;;;;;;;19.73;64.59;100202.38;220054;1265;138247;-89
2023/06/27 14:59:56;;;;;;;4.60;1.60;;;;;;;19.40;66.49;100197.91;219458;1267;140664;-87
2023/06/27 15:04:57;;;;;;;7.90;1.50;;;;;;;19.12;67.72;100185.52;219937;1265;138613;-87
2023/06/27 15:09:57;;;;;;;3.90;1.40;;;;;;;18.93;68.60;100185.73;219244;1267;140525;-85
2023/06/27 15:14:59;;;;;;;3.70;1.30;;;;;;;18.76;69.68;100177.98;219945;1264;138269;-87
2023/06/27 15:20:01;;;;;;;4.10;1.30;;;;;;;18.48;71.40;100184.85;219296;1265;141226;-84
2023/06/27 15:25:02;;;;;;;4.10;1.40;;;;;;;18.41;72.80;100189.48;219876;1264;139083;-87
2023/06/27 15:30:03;;;;;;;3.30;1.30;;;;;;;18.37;73.16;100191.25;219486;1265;140428;-86
2023/06/27 15:35:08;;;;;;;4.10;1.30;;;;;;;18.36;73.54;100191.43;220166;1267;138808;-87
2023/06/27 15:40:09;;;;;;;5.50;1.30;;;;;;;18.39;74.97;100186.90;221036;1264;140488;-86
2023/06/27 15:45:10;;;;;;;4.50;1.30;;;;;;;18.40;75.18;100191.88;221376;1264;138800;-88
2023/06/27 15:50:10;;;;;;;3.60;1.00;;;;;;;18.45;75.91;100190.89;220880;1265;142141;-88
2023/06/27 15:55:11;;;;;;;3.40;1.40;;;;;;;18.50;75.53;100179.61;221019;1264;139450;-88
2023/06/27 16:00:12;;;;;;;2.80;0.90;;;;;;;18.49;75.41;100183.45;220651;1265;141379;-88
2023/06/27 16:05:13;;;;;;;3.00;1.00;;;;;;;18.45;74.92;100182.36;221083;1266;138988;-87
2023/06/27 16:10:13;;;;;;;2.60;0.90;;;;;;;18.42;74.42;100186.90;220587;1267;140421;-87
2023/06/27 16:15:14;;;;;;;5.30;0.90;;;;;;;18.32;74.83;100183.06;221196;1265;139097;-87
2023/06/27 16:20:14;;;;;;;5.80;1.20;;;;;;;18.30;75.78;100185.73;220702;1265;141465;-87
2023/06/27 16:25:15;;;;;;;2.50;1.20;;;;;;;18.31;75.55;100181.09;221128;1265;138774;-87
2023/06/27 16:30:16;;;;;;;4.20;1.20;;;;;;;18.27;75.05;100176.81;220793;1265;141035;-87
2023/06/27 16:35:18;;;;;;;3.40;1.40;;;;;;;18.20;76.58;100188.52;221357;1265;139255;-85
2023/06/27 16:40:19;;;;;;;2.70;1.20;;;;;;;18.04;76.87;100188.96;220623;1266;141138;-86
2023/06/27 16:45:19;;;;;;;6.70;2.00;;;;;;;18.02;77.80;100179.80;221112;1264;138954;-87
2023/06/27 16:50:20;;;;;;;4.80;1.20;;;;;;;18.01;77.72;100176.95;220514;1264;141919;-86
2023/06/27 16:55:20;;;;;;;2.80;0.80;;;;;;;17.99;78.29;100175.64;221099;1265;138995;-86
2023/06/27 17:00:23;;;;;;;1.90;1.00;;;;;;;17.90;78.21;100180.70;220701;1267;140665;-85
2023/06/27 17:05:25;;;;;;;3.90;1.10;;;;;;;17.81;78.89;100184.01;220903;1264;139069;-86
2023/06/27 17:10:25;;;;;;;6.20;1.50;;;;;;;17.77;79.88;100185.52;220464;1266;141720;-84
2023/06/27 17:15:26;;;;;;;4.20;1.10;;;;;;;17.75;80.09;100188.13;220989;1264;138930;-85
2023/06/27 17:20:27;;;;;;;5.60;1.70;;;;;;;17.74;81.11;100198.00;220592;1265;142122;-86
2023/06/27 17:25:28;;;;;;;2.10;1.10;;;;;;;17.68;81.48;100197.66;220992;1266;139394;-85
2023/06/27 17:30:28;;;;;;;5.30;1.30;;;;;;;17.55;80.33;100202.88;220168;1267;141749;-85
2023/06/27 17:35:29;;;;;;;3.30;1.20;;;;;;;17.42;79.18;100203.20;221113;1266;139289;-86
2023/06/27 17:40:29;;;;;;;2.10;1.30;;;;;;;17.31;77.74;100206.17;220600;1263;141222;-85
2023/06/27 17:45:30;;;;;;;5.00;0.90;;;;;;;17.25;77.12;100210.66;221182;1267;139111;-86
2023/06/27 17:50:31;;;;;;;4.10;0.90;;;;;;;17.21;76.40;100211.55;220661;1267;141811;-85
2023/06/27 17:55:31;;;;;;;2.20;1.00;;;;;;;17.22;76.16;100199.38;221090;1266;138433;-86
2023/06/27 18:00:32;;;;;;;2.70;1.30;;;;;;;17.21;75.68;100193.50;220571;1266;141053;-84
2023/06/27 18:05:33;;;;;;;3.50;0.90;;;;;;;17.22;76.23;100183.55;221202;1266;138949;-84
2023/06/27 18:10:34;;;;;;;3.60;1.10;;;;;;;17.22;77.17;100179.02;220707;1265;140897;-84
2023/06/27 18:15:34;;;;;;;2.40;0.80;;;;;;;17.20;76.94;100166.98;221182;1267;138926;-84
2023/06/27 18:20:36;;;;;;;2.90;0.90;;;;;;;17.19;77.52;100162.09;220788;1263;141636;-85
2023/06/27 18:25:37;;;;;;;2.20;0.80;;;;;;;17.14;77.50;100155.11;221392;1263;99250;-85
2023/06/27 18:30:38;;;;;;;6.00;1.40;;;;;;;17.05;78.00;100154.02;220512;1264;140390;-85
2023/06/27 18:35:38;;;;;;;2.70;1.10;;;;;;;16.91;78.35;100145.15;220963;1263;418167;-85
2023/06/27 18:40:39;;;;;;;4.10;1.20;;;;;;;16.81;79.10;100143.11;220696;1264;141072;-85
2023/06/27 18:45:39;;;;;;;3.60;1.80;;;;;;;16.71;79.59;100143.39;221362;1264;139334;-85
2023/06/27 18:50:40;;;;;;;5.40;1.40;;;;;;;16.65;80.00;100145.97;220492;1263;141201;-84
2023/06/27 18:55:40;;;;;;;4.00;1.90;;;;;;;16.46;80.57;100156.70;221268;1265;97926;-85
2023/06/27 19:00:41;;;;;;;5.20;1.70;;;;;;;16.36;80.97;100160.27;220639;1266;142027;-84
2023/06/27 19:05:42;;;;;;;5.10;1.30;;;;;;;16.20;81.55;100167.33;221212;1264;139476;-85
2023/06/27 19:10:42;;;;;;;4.10;1.30;;;;;;;16.08;81.95;100171.58;220631;1267;140232;-85
2023/06/27 19:15:44;;;;;;;2.70;1.00;;;;;;;15.96;82.62;100178.90;221142;1264;138764;-85
2023/06/27 19:20:44;;;;;;;4.50;1.20;;;;;;;15.85;82.90;100178.11;220554;1263;140793;-84
2023/06/27 19:25:46;;;;;;;2.10;1.10;;;;;;;15.72;83.30;100182.79;221465;1264;97957;-85
2023/06/27 19:30:47;;;;;;;2.70;1.20;;;;;;;15.58;83.82;100184.11;221116;1263;140615;-85
2023/06/27 19:35:47;;;;;;;2.20;1.30;;;;;;;15.42;84.37;100189.30;221477;1264;138834;-82
2023/06/27 19:40:48;;;;;;;2.40;1.20;;;;;;;15.33;84.92;100191.85;220623;1266;143689;-83
2023/06/27 19:45:48;;;;;;;4.20;1.60;;;;;;;15.25;84.98;100197.00;221236;1264;138756;-82
2023/06/27 19:50:49;;;;;;;4.10;1.50;;;;;;;15.22;85.44;100203.30;220894;1267;141765;-83
2023/06/27 19:55:51;;;;;;;4.10;1.50;;;;;;;15.12;86.14;100207.67;221530;1266;98026;-82
2023/06/27 20:00:51;;;;;;;4.00;1.30;;;;;;;15.03;86.90;100206.36;220902;1264;140763;-83
2023/06/27 20:05:52;;;;;;;3.70;1.40;;;;;;;14.96;87.18;100196.77;221500;1265;139746;-82
2023/06/27 20:10:52;;;;;;;4.70;1.50;;;;;;;14.90;87.43;100198.96;220601;1263;141583;-84
2023/06/27 20:15:54;;;;;;;5.40;1.80;;;;;;;14.83;87.54;100198.95;221211;1267;139327;-84
2023/06/27 20:20:54;;;;;;;2.10;1.10;;;;;;;14.76;88.31;100197.92;220577;1263;141356;-84
2023/06/27 20:25:55;;;;;;;4.00;1.80;;;;;;;14.68;88.95;100193.56;221384;1264;97913;-84
2023/06/27 20:30:57;;;;;;;3.20;1.80;;;;;;;14.62;89.35;100193.61;220842;1264;140912;-82
2023/06/27 20:35:57;;;;;;;6.10;2.90;;;;;;;14.55;90.42;100193.69;221239;1268;138756;-83
2023/06/27 20:40:58;;;;;;;6.50;2.20;;;;;;;14.46;91.23;100193.36;220811;1266;142232;-83
2023/06/27 20:46:01;;;;;;;5.40;2.50;;;;;;;14.38;91.44;100199.05;221375;1263;138979;-83
2023/06/27 20:51:02;;;;;;;4.70;1.80;;;;;;;14.35;91.72;100198.67;220650;1266;141632;-83
2023/06/27 20:56:02;;;;;;;6.10;1.70;;;;;;;14.29;92.33;100207.10;221407;1265;97924;-83
2023/06/27 21:01:03;;;;;;;8.30;2.00;;;;;;;14.23;92.54;100202.02;220656;1266;141332;-83
2023/06/27 21:06:03;;;;;;;6.40;2.10;;;;;;;14.19;92.76;100198.64;221353;1266;138788;-82
2023/06/27 21:11:04;;;;;;;3.70;1.90;;;;;;;14.15;92.85;100197.36;220625;1267;140636;-83
2023/06/27 21:16:04;;;;;;;6.50;1.70;;;;;;;14.10;93.30;100205.00;221400;1268;138904;-82
2023/06/27 21:21:05;;;;;;;5.20;1.80;;;;;;;14.07;92.77;100201.45;221466;1263;141269;-83
2023/06/27 21:26:06;;;;;;;5.30;1.80;;;;;;;14.06;93.42;100196.09;222087;1263;97948;-84
2023/06/27 21:31:08;;;;;;;5.70;1.90;;;;;;;14.01;93.56;100190.83;221092;1264;140879;-83
2023/06/27 21:36:09;;;;;;;6.80;2.00;;;;;;;13.94;94.34;100192.38;221422;1266;138982;-84
2023/06/27 21:41:09;;;;;;;7.00;2.60;;;;;;;13.87;94.65;100201.74;221302;1263;140640;-82
2023/06/27 21:46:10;;;;;;;6.90;2.40;;;;;;;13.85;95.29;100210.30;221103;1264;139069;-82
2023/06/27 21:51:10;;;;;;;4.70;2.20;;;;;;;13.78;95.65;100204.64;220598;1264;141705;-82
2023/06/27 21:56:11;;;;;;;7.00;1.80;;;;;;;13.74;95.77;100209.80;221212;1266;97621;-82
2023/06/27 22:01:11;;;;;;;9.50;2.30;;;;;;;13.70;96.05;100210.45;220650;1267;140987;-82
2023/06/27 22:06:12;;;;;;;7.00;2.40;;;;;;;13.67;96.12;100214.58;222164;1264;138844;-83
2023/06/27 22:11:12;;;;;;;6.00;2.30;;;;;;;13.62;96.00;100212.55;221636;1265;140621;-83
2023/06/27 22:16:13;;;;;;;7.00;2.00;;;;;;;13.55;96.39;100212.18;222345;1263;138819;-83
2023/06/27 22:21:13;;;;;;;17.00;2.40;;;;;;;13.47;96.70;100208.90;221586;1264;140315;-83
2023/06/27 22:26:14;;;;;;;6.60;2.30;;;;;;;13.39;97.23;100200.95;222006;1264;110410;-81
2023/06/27 22:31:15;;;;;;;4.80;2.40;;;;;;;13.31;97.49;100199.64;221683;1264;140507;-84
2023/06/27 22:36:15;;;;;;;8.00;2.00;;;;;;;13.24;97.77;100201.41;222212;1264;139551;-83
2023/06/27 22:41:15;;;;;;;8.20;2.30;;;;;;;13.19;98.13;100202.68;221553;1264;140201;-82
2023/06/27 22:46:16;;;;;;;6.10;2.50;;;;;;;13.17;97.87;100200.95;222018;1264;139031;-83
2023/06/27 22:51:16;;;;;;;5.40;2.20;;;;;;;13.14;98.89;100203.90;221485;1264;141344;-82
2023/06/27 22:56:17;;;;;;;8.10;2.40;;;;;;;13.09;99.78;100198.54;221997;1264;97885;-84